Time;durP1;ratioP1;P1;durP2;ratioP2;P2;SDS_P1;SDS_P2;PMS_P1;PMS_P2;Temp;Humidity;BMP_temperature;BMP_pressure;BME280_temperature;BME280_humidity;BME280_pressure;Samples;Min_cycle;Max_cycle;Signal;HPM_P1;HPM_P2
2023/07/27 00:00:51;;;;;;;4.23;2.97;;;16.40;99.90;;;;;;4792538;29;20190;-88
2023/07/27 00:03:16;;;;;;;9.10;3.60;;;16.50;99.90;;;;;;4777904;29;20230;-87
2023/07/27 00:05:42;;;;;;;4.40;3.03;;;16.50;99.90;;;;;;4791158;29;20209;-88
2023/07/27 00:08:07;;;;;;;3.10;2.40;;;16.50;99.90;;;;;;4777500;29;20229;-88
2023/07/27 00:10:33;;;;;;;3.37;2.80;;;16.50;99.90;;;;;;4777717;29;20194;-89
2023/07/27 00:12:58;;;;;;;5.37;2.90;;;16.40;99.90;;;;;;4792817;29;20285;-88
2023/07/27 00:15:24;;;;;;;6.00;2.90;;;16.50;99.90;;;;;;4792510;29;20247;-88
2023/07/27 00:17:50;;;;;;;4.67;3.00;;;16.40;99.90;;;;;;4809000;29;20183;-88
2023/07/27 00:20:15;;;;;;;3.23;2.90;;;16.40;99.90;;;;;;4792774;29;20190;-88
2023/07/27 00:22:41;;;;;;;4.60;3.07;;;16.40;99.90;;;;;;4808270;29;20186;-88
2023/07/27 00:25:07;;;;;;;5.10;2.77;;;16.40;99.90;;;;;;4808870;29;20238;-87
2023/07/27 00:27:32;;;;;;;3.70;2.80;;;16.40;99.90;;;;;;4792315;29;20193;-88
2023/07/27 00:29:58;;;;;;;4.97;2.83;;;16.40;99.90;;;;;;4777685;29;20942;-88
2023/07/27 00:32:24;;;;;;;4.67;3.00;;;16.30;99.90;;;;;;4791911;29;20276;-88
2023/07/27 00:34:52;;;;;;;6.40;3.03;;;16.30;99.90;;;;;;4792285;29;20663;-87
2023/07/27 00:37:18;;;;;;;3.97;2.70;;;16.30;99.90;;;;;;4808438;29;20276;-87
2023/07/27 00:39:44;;;;;;;3.40;3.10;;;16.30;99.90;;;;;;4791901;29;20546;-88
2023/07/27 00:42:09;;;;;;;7.37;2.90;;;16.20;99.90;;;;;;4808311;29;20190;-87
2023/07/27 00:44:35;;;;;;;3.67;2.80;;;16.30;99.90;;;;;;4807936;29;20225;-88
2023/07/27 00:47:01;;;;;;;9.30;3.00;;;16.30;99.90;;;;;;4791965;29;20636;-88
2023/07/27 00:49:27;;;;;;;4.27;2.90;;;16.20;99.90;;;;;;4807883;29;20186;-88
2023/07/27 00:51:53;;;;;;;4.00;2.63;;;16.20;99.90;;;;;;4808333;29;20515;-88
2023/07/27 00:54:19;;;;;;;3.43;2.70;;;16.20;99.90;;;;;;4807995;29;20468;-88
2023/07/27 00:56:44;;;;;;;3.97;2.80;;;16.30;99.90;;;;;;4777077;29;20432;-87
2023/07/27 00:59:10;;;;;;;3.10;2.60;;;16.20;99.90;;;;;;4807998;29;20251;-87
2023/07/27 01:01:36;;;;;;;3.90;2.70;;;16.20;99.90;;;;;;4791920;29;20216;-88
2023/07/27 01:04:02;;;;;;;7.47;3.00;;;16.20;99.90;;;;;;4808151;29;20904;-87
2023/07/27 01:06:29;;;;;;;4.20;3.13;;;16.20;99.90;;;;;;4791476;29;20186;-88
2023/07/27 01:08:55;;;;;;;5.77;2.90;;;16.20;99.90;;;;;;4777165;29;20450;-87
2023/07/27 01:11:26;;;;;;;6.23;3.17;;;16.20;99.90;;;;;;4791242;29;20405;-87
2023/07/27 01:14:23;;;;;;;3.40;2.80;;;16.20;99.90;;;;;;4791491;29;20439;-88
2023/07/27 01:17:12;;;;;;;3.10;2.50;;;16.20;99.90;;;;;;4791492;29;20805;-88
2023/07/27 01:20:00;;;;;;;4.20;2.70;;;16.20;99.90;;;;;;4791552;29;20459;-88
2023/07/27 01:22:31;;;;;;;6.60;3.00;;;16.20;99.90;;;;;;4807570;29;20394;-88
2023/07/27 01:25:25;;;;;;;5.50;2.83;;;16.20;99.90;;;;;;4790990;29;20473;-88
2023/07/27 01:28:15;;;;;;;5.43;3.20;;;16.20;99.90;;;;;;4807653;29;20423;-88
2023/07/27 01:30:45;;;;;;;6.30;3.63;;;16.20;99.90;;;;;;4807501;29;20379;-87
2023/07/27 01:33:14;;;;;;;6.07;2.87;;;16.20;99.90;;;;;;4807719;29;20424;-88
2023/07/27 01:35:53;;;;;;;4.33;3.23;;;16.20;99.90;;;;;;4807300;29;20444;-88
2023/07/27 01:38:20;;;;;;;3.70;2.77;;;16.20;99.90;;;;;;4791123;29;20405;-87
2023/07/27 01:40:48;;;;;;;5.07;2.93;;;16.20;99.90;;;;;;4791028;29;20435;-88
2023/07/27 01:43:15;;;;;;;3.90;2.87;;;16.20;99.90;;;;;;4791434;29;20446;-88
2023/07/27 01:45:41;;;;;;;4.60;2.77;;;16.20;99.90;;;;;;4807220;29;20514;-88
2023/07/27 01:48:08;;;;;;;4.37;2.93;;;16.20;99.90;;;;;;4776067;29;20831;-88
2023/07/27 01:50:35;;;;;;;4.57;2.93;;;16.20;99.90;;;;;;4775885;29;20444;-88
2023/07/27 01:53:03;;;;;;;3.80;2.67;;;16.20;99.90;;;;;;4807339;29;20469;-88
2023/07/27 01:55:29;;;;;;;3.00;2.20;;;16.20;99.90;;;;;;4776262;29;20414;-88
2023/07/27 01:57:59;;;;;;;3.30;2.80;;;16.20;99.90;;;;;;4807037;29;20562;-88
2023/07/27 02:00:26;;;;;;;4.30;2.87;;;16.20;99.90;;;;;;4806785;29;20442;-88
2023/07/27 02:02:52;;;;;;;4.00;2.70;;;16.20;99.90;;;;;;4790867;29;20439;-88
2023/07/27 02:05:21;;;;;;;5.03;3.27;;;16.20;99.90;;;;;;4790674;29;20790;-87
2023/07/27 02:07:47;;;;;;;3.20;2.90;;;16.30;99.90;;;;;;4806689;29;20455;-88
2023/07/27 02:10:17;;;;;;;5.80;2.50;;;16.20;99.90;;;;;;4806871;29;20536;-88
2023/07/27 02:12:49;;;;;;;3.40;2.60;;;16.20;99.90;;;;;;4790298;29;20544;-88
2023/07/27 02:15:22;;;;;;;2.63;2.43;;;16.20;99.90;;;;;;4806730;29;20465;-88
2023/07/27 02:17:53;;;;;;;3.97;2.93;;;16.10;99.90;;;;;;4806478;29;20390;-88
2023/07/27 02:20:21;;;;;;;5.03;2.97;;;16.10;99.90;;;;;;4790847;29;20390;-90
2023/07/27 02:22:48;;;;;;;3.77;3.03;;;16.00;99.90;;;;;;4790476;29;20929;-90
2023/07/27 02:25:14;;;;;;;3.53;3.23;;;16.00;99.90;;;;;;4790083;29;20541;-90
2023/07/27 02:27:40;;;;;;;3.37;3.00;;;15.90;99.90;;;;;;4789719;29;20427;-90
2023/07/27 02:30:06;;;;;;;4.37;3.47;;;15.80;99.90;;;;;;4790711;29;20431;-90
2023/07/27 02:32:32;;;;;;;3.83;2.77;;;15.80;99.90;;;;;;4791468;29;20190;-90
2023/07/27 02:35:00;;;;;;;4.90;3.70;;;15.70;99.90;;;;;;4791452;29;20443;-92
2023/07/27 02:37:46;;;;;;;6.53;3.17;;;15.60;99.90;;;;;;4776309;29;20409;-93
2023/07/27 02:43:58;;;;;;;4.87;3.33;;;15.40;99.90;;;;;;4732697;30;20516;-91
2023/07/27 02:46:24;;;;;;;3.73;3.37;;;15.30;99.90;;;;;;4790984;29;20439;-91
2023/07/27 02:48:52;;;;;;;4.67;3.60;;;15.20;99.90;;;;;;4806544;29;20434;-90
2023/07/27 02:51:17;;;;;;;4.47;3.83;;;15.00;99.90;;;;;;4808493;29;20272;-90
2023/07/27 02:53:43;;;;;;;5.27;4.07;;;15.00;99.90;;;;;;4824414;29;20445;-90
2023/07/27 02:56:09;;;;;;;5.57;4.13;;;14.90;99.90;;;;;;4808200;29;20555;-89
2023/07/27 02:58:34;;;;;;;6.53;4.40;;;14.90;99.90;;;;;;4808120;29;20192;-89
2023/07/27 03:01:04;;;;;;;5.30;3.70;;;14.80;99.90;;;;;;4824452;29;20196;-88
2023/07/27 03:03:30;;;;;;;5.27;4.10;;;14.70;99.90;;;;;;4824363;29;20241;-89
2023/07/27 03:06:01;;;;;;;5.70;4.37;;;14.70;99.90;;;;;;4827794;29;20447;-88
2023/07/27 03:08:28;;;;;;;4.10;3.73;;;14.70;99.90;;;;;;4824855;29;20257;-87
2023/07/27 03:11:04;;;;;;;9.00;4.70;;;14.60;99.90;;;;;;4807665;29;20848;-88
2023/07/27 03:13:31;;;;;;;5.57;4.57;;;14.60;99.90;;;;;;4808119;29;20426;-88
2023/07/27 03:15:56;;;;;;;5.23;4.30;;;14.60;99.90;;;;;;4807923;29;20422;-88
2023/07/27 03:18:22;;;;;;;6.20;3.90;;;14.50;99.90;;;;;;4808175;29;20480;-87
2023/07/27 03:20:48;;;;;;;6.57;4.37;;;14.50;99.90;;;;;;4824083;29;20628;-87
2023/07/27 03:23:14;;;;;;;6.00;4.40;;;14.50;99.90;;;;;;4807772;29;20370;-86
2023/07/27 03:25:41;;;;;;;6.63;5.23;;;14.50;99.90;;;;;;4806899;29;20320;-87
2023/07/27 03:28:08;;;;;;;5.60;4.70;;;14.50;99.90;;;;;;4806508;29;20632;-86
2023/07/27 03:30:41;;;;;;;6.40;4.40;;;14.40;99.90;;;;;;4806170;29;20438;-87
2023/07/27 03:33:07;;;;;;;6.53;4.40;;;14.40;99.90;;;;;;4806235;29;20420;-86
2023/07/27 03:35:34;;;;;;;6.17;5.27;;;14.50;99.90;;;;;;4805906;29;20397;-87
2023/07/27 03:37:59;;;;;;;5.33;4.80;;;14.40;99.90;;;;;;4806295;29;20412;-86
2023/07/27 03:40:25;;;;;;;8.90;5.30;;;14.40;99.90;;;;;;4808601;29;20404;-86
2023/07/27 03:42:50;;;;;;;15.23;5.70;;;14.40;99.90;;;;;;4792826;29;20183;-86
2023/07/27 03:45:16;;;;;;;5.90;4.70;;;14.40;99.90;;;;;;4809563;29;20223;-86
2023/07/27 03:47:42;;;;;;;6.60;5.50;;;14.40;99.90;;;;;;4793076;29;20297;-87
2023/07/27 03:50:09;;;;;;;5.70;4.70;;;14.40;99.90;;;;;;4809302;29;20231;-86
2023/07/27 03:52:34;;;;;;;7.27;4.67;;;14.40;99.90;;;;;;4808897;29;20789;-86
2023/07/27 03:55:00;;;;;;;7.70;5.23;;;14.30;99.90;;;;;;4809017;29;20414;-85
2023/07/27 03:57:25;;;;;;;6.00;4.50;;;14.30;99.90;;;;;;4809045;29;20571;-86
2023/07/27 03:59:59;;;;;;;6.33;5.37;;;14.30;99.90;;;;;;4792643;29;20197;-87
2023/07/27 04:02:25;;;;;;;9.57;5.33;;;14.30;99.90;;;;;;4792775;29;20543;-85
2023/07/27 04:04:51;;;;;;;6.10;4.73;;;14.30;99.90;;;;;;4808691;29;20569;-85
2023/07/27 04:07:18;;;;;;;6.80;5.13;;;14.30;99.90;;;;;;4809159;29;20422;-85
2023/07/27 04:09:43;;;;;;;7.40;5.10;;;14.30;99.90;;;;;;4792761;29;20398;-85
2023/07/27 04:12:09;;;;;;;8.83;6.83;;;14.30;99.90;;;;;;4808920;29;20435;-85
2023/07/27 04:14:35;;;;;;;12.47;6.07;;;14.30;99.90;;;;;;4793064;29;20198;-86
2023/07/27 04:17:01;;;;;;;11.10;5.43;;;14.30;99.90;;;;;;4808935;29;20424;-85
2023/07/27 04:19:26;;;;;;;8.10;6.10;;;14.30;99.90;;;;;;4809420;29;20431;-85
2023/07/27 04:21:52;;;;;;;7.33;5.40;;;14.30;99.90;;;;;;4808877;29;20197;-85
2023/07/27 04:24:17;;;;;;;6.43;5.10;;;14.40;99.90;;;;;;4799047;29;20588;-85
2023/07/27 04:26:43;;;;;;;9.30;5.83;;;14.40;99.90;;;;;;4826491;29;20193;-85
2023/07/27 04:29:09;;;;;;;9.63;5.70;;;14.30;99.90;;;;;;4810988;29;20220;-84
2023/07/27 04:31:34;;;;;;;10.70;5.10;;;14.30;99.90;;;;;;4810710;29;20188;-84
2023/07/27 04:34:00;;;;;;;8.30;6.17;;;14.30;99.90;;;;;;4826691;29;20205;-85
2023/07/27 04:36:25;;;;;;;11.73;6.37;;;14.30;99.90;;;;;;4826748;29;20208;-84
2023/07/27 04:38:51;;;;;;;8.10;5.83;;;14.30;99.90;;;;;;4810086;29;20193;-84
2023/07/27 04:41:16;;;;;;;9.03;6.17;;;14.30;99.90;;;;;;4810373;29;20185;-85
2023/07/27 04:43:42;;;;;;;6.90;5.93;;;14.30;99.90;;;;;;4810545;29;20246;-85
2023/07/27 04:46:08;;;;;;;9.90;6.20;;;14.30;99.90;;;;;;4826196;29;20251;-85
2023/07/27 04:48:33;;;;;;;7.53;6.10;;;14.30;99.90;;;;;;4826407;29;20277;-85
2023/07/27 04:50:59;;;;;;;10.70;6.10;;;14.20;99.90;;;;;;4794341;29;20190;-85
2023/07/27 04:53:24;;;;;;;8.80;5.67;;;14.30;99.90;;;;;;4826246;29;20197;-85
2023/07/27 04:55:50;;;;;;;13.33;6.90;;;14.30;99.90;;;;;;4825790;29;20264;-86
2023/07/27 04:58:16;;;;;;;7.10;6.10;;;14.30;99.90;;;;;;4826505;29;20524;-86
2023/07/27 05:00:41;;;;;;;7.40;6.40;;;14.20;99.90;;;;;;4809928;29;20197;-85
2023/07/27 05:03:07;;;;;;;8.23;6.00;;;14.30;99.90;;;;;;4809772;29;20273;-85
2023/07/27 05:05:32;;;;;;;10.80;6.63;;;14.20;99.90;;;;;;4826505;29;20273;-85
2023/07/27 05:07:58;;;;;;;7.63;5.73;;;14.30;99.90;;;;;;4809334;29;20281;-86
2023/07/27 05:10:24;;;;;;;9.30;5.93;;;14.20;99.90;;;;;;4826224;29;20182;-87
2023/07/27 05:12:50;;;;;;;11.53;6.47;;;14.20;99.90;;;;;;4795029;29;20242;-85
2023/07/27 05:15:16;;;;;;;7.40;5.53;;;14.20;99.90;;;;;;4810172;29;20186;-85
2023/07/27 05:17:41;;;;;;;7.20;6.50;;;14.20;99.90;;;;;;4794628;29;20423;-85
2023/07/27 05:20:08;;;;;;;8.10;5.57;;;14.20;99.90;;;;;;4794642;29;20470;-86
2023/07/27 05:22:33;;;;;;;8.40;6.97;;;14.20;99.90;;;;;;4825892;29;20229;-87
2023/07/27 05:24:59;;;;;;;8.97;5.53;;;14.20;99.90;;;;;;4809117;29;20945;-87
2023/07/27 05:27:25;;;;;;;8.20;6.57;;;14.20;99.90;;;;;;4779769;29;20487;-85
2023/07/27 05:29:50;;;;;;;9.50;7.03;;;14.20;99.90;;;;;;4809562;29;20284;-85
2023/07/27 05:32:16;;;;;;;10.73;6.50;;;14.20;99.90;;;;;;4810019;29;20182;-84
2023/07/27 05:34:41;;;;;;;10.33;6.70;;;14.20;99.90;;;;;;4825666;29;20249;-84
2023/07/27 05:37:07;;;;;;;10.83;6.80;;;14.30;99.90;;;;;;4779887;29;20272;-85
2023/07/27 05:39:33;;;;;;;7.97;7.13;;;14.30;99.90;;;;;;4809901;29;20181;-84
2023/07/27 05:41:58;;;;;;;6.37;5.57;;;14.30;99.90;;;;;;4809257;29;20240;-85
2023/07/27 05:44:24;;;;;;;8.27;6.23;;;14.30;99.90;;;;;;4809854;29;20221;-85
2023/07/27 05:46:54;;;;;;;11.63;6.70;;;14.20;99.90;;;;;;4826106;29;20193;-85
2023/07/27 05:49:19;;;;;;;7.77;7.03;;;14.30;99.90;;;;;;4826024;29;20181;-84
2023/07/27 05:51:45;;;;;;;11.23;7.13;;;14.30;99.90;;;;;;4809687;29;20433;-85
2023/07/27 05:54:10;;;;;;;8.97;6.73;;;14.30;99.90;;;;;;4826251;29;20204;-85
2023/07/27 05:56:36;;;;;;;8.67;6.50;;;14.40;99.90;;;;;;4826170;29;20190;-85
2023/07/27 05:59:02;;;;;;;7.57;5.77;;;14.40;99.90;;;;;;4825997;29;20188;-88
2023/07/27 06:01:27;;;;;;;9.73;6.53;;;14.40;99.90;;;;;;4810074;29;20217;-85
2023/07/27 06:03:53;;;;;;;6.70;6.10;;;14.40;99.90;;;;;;4825667;29;20220;-85
2023/07/27 06:06:18;;;;;;;11.77;6.30;;;14.50;99.90;;;;;;4809366;29;20208;-85
2023/07/27 06:08:44;;;;;;;8.57;6.80;;;14.50;99.90;;;;;;4794177;29;20215;-86
2023/07/27 06:11:09;;;;;;;10.27;6.10;;;14.50;99.90;;;;;;4809290;29;20189;-85
2023/07/27 06:13:38;;;;;;;6.20;5.60;;;14.50;99.90;;;;;;4794454;29;20280;-85
2023/07/27 06:16:04;;;;;;;7.17;6.13;;;14.50;99.90;;;;;;4809329;29;20557;-87
2023/07/27 06:18:30;;;;;;;9.73;6.30;;;14.50;99.90;;;;;;4808728;29;20435;-86
2023/07/27 06:20:57;;;;;;;7.63;5.80;;;14.60;99.90;;;;;;4779018;29;20954;-86
2023/07/27 06:23:23;;;;;;;12.00;7.00;;;14.60;99.90;;;;;;4825177;29;20534;-85
2023/07/27 06:25:49;;;;;;;10.97;6.80;;;14.60;99.90;;;;;;4807036;29;20446;-86
2023/07/27 06:28:15;;;;;;;7.60;5.93;;;14.60;99.90;;;;;;4790783;29;20187;-85
2023/07/27 06:30:41;;;;;;;7.63;6.23;;;14.60;99.90;;;;;;4791088;29;20840;-85
2023/07/27 06:33:07;;;;;;;6.93;5.87;;;14.60;99.90;;;;;;4807115;29;20196;-86
2023/07/27 06:35:33;;;;;;;8.53;5.87;;;14.70;99.90;;;;;;4790732;29;20182;-86
2023/07/27 06:37:59;;;;;;;8.50;6.30;;;14.70;99.90;;;;;;4806537;29;20455;-86
2023/07/27 06:40:25;;;;;;;7.53;6.40;;;14.80;99.90;;;;;;4806765;29;20455;-86
2023/07/27 06:42:51;;;;;;;8.00;7.20;;;14.80;99.90;;;;;;4806470;29;20224;-85
2023/07/27 06:45:17;;;;;;;9.20;6.37;;;14.90;99.90;;;;;;4806583;29;20483;-86
2023/07/27 06:47:42;;;;;;;7.20;5.83;;;14.90;99.90;;;;;;4806861;29;20186;-85
2023/07/27 06:50:08;;;;;;;10.43;6.17;;;15.00;99.90;;;;;;4775453;29;20190;-86
2023/07/27 06:52:34;;;;;;;8.47;5.53;;;15.00;99.90;;;;;;4790322;29;20190;-85
2023/07/27 06:54:59;;;;;;;11.43;6.20;;;15.10;99.90;;;;;;4775116;29;20674;-86
2023/07/27 06:57:25;;;;;;;6.60;6.00;;;15.10;99.90;;;;;;4790221;29;20235;-86
2023/07/27 06:59:51;;;;;;;9.47;5.93;;;15.20;99.90;;;;;;4789571;29;20323;-87
2023/07/27 07:02:17;;;;;;;7.10;5.10;;;15.20;99.90;;;;;;4789965;29;20477;-86
2023/07/27 07:04:43;;;;;;;8.33;5.57;;;15.30;99.90;;;;;;4806253;29;20214;-86
2023/07/27 07:07:10;;;;;;;6.53;4.90;;;15.30;99.90;;;;;;4789994;29;20435;-86
2023/07/27 07:09:36;;;;;;;5.10;4.47;;;15.40;99.90;;;;;;4806367;29;20438;-86
2023/07/27 07:12:03;;;;;;;4.97;4.47;;;15.40;99.90;;;;;;4790016;29;20489;-86
2023/07/27 07:14:29;;;;;;;5.57;4.60;;;15.50;99.90;;;;;;4791392;29;20431;-87
2023/07/27 07:16:54;;;;;;;7.10;4.50;;;15.40;99.90;;;;;;4793554;29;20410;-86
2023/07/27 07:19:20;;;;;;;6.33;4.50;;;15.50;99.90;;;;;;4809791;29;20209;-87
2023/07/27 07:21:45;;;;;;;4.60;4.20;;;15.50;99.90;;;;;;4809340;29;20182;-89
2023/07/27 07:24:11;;;;;;;4.50;4.10;;;15.60;99.90;;;;;;4799139;29;20245;-88
2023/07/27 07:26:37;;;;;;;6.30;4.10;;;15.60;99.90;;;;;;4827963;29;20635;-88
2023/07/27 07:29:02;;;;;;;4.50;3.60;;;15.70;99.90;;;;;;4811600;29;20208;-88
2023/07/27 07:31:30;;;;;;;4.73;3.90;;;15.70;99.90;;;;;;4827875;29;20189;-89
2023/07/27 07:33:58;;;;;;;5.57;3.77;;;15.70;99.90;;;;;;4811038;29;20193;-88
2023/07/27 07:36:25;;;;;;;9.20;3.70;;;15.80;99.90;;;;;;4811305;29;20835;-87
2023/07/27 07:38:51;;;;;;;5.40;4.00;;;15.80;99.90;;;;;;4811573;29;20866;-86
2023/07/27 07:41:17;;;;;;;3.20;3.00;;;15.80;99.90;;;;;;4827455;29;20397;-86
2023/07/27 07:43:43;;;;;;;3.73;2.80;;;15.80;99.90;;;;;;4811546;29;20461;-86
2023/07/27 07:46:12;;;;;;;3.20;3.00;;;15.80;99.90;;;;;;4827272;29;20408;-86
2023/07/27 07:48:38;;;;;;;2.93;2.60;;;15.80;99.90;;;;;;4796588;29;20579;-86
2023/07/27 07:51:13;;;;;;;3.90;2.70;;;15.80;99.90;;;;;;4810920;29;20478;-86
2023/07/27 07:53:39;;;;;;;2.53;2.33;;;15.80;99.90;;;;;;4812432;29;20442;-87
2023/07/27 07:56:05;;;;;;;3.47;3.10;;;15.80;99.90;;;;;;4827446;29;20422;-86
2023/07/27 07:58:31;;;;;;;2.90;2.60;;;15.90;99.90;;;;;;4811061;29;20922;-86
2023/07/27 08:00:57;;;;;;;2.83;2.40;;;15.90;99.90;;;;;;4826989;29;20394;-87
2023/07/27 08:03:23;;;;;;;2.93;2.67;;;15.90;99.90;;;;;;4827120;29;20512;-86
2023/07/27 08:05:48;;;;;;;2.90;2.20;;;15.90;99.90;;;;;;4826959;29;20467;-87
2023/07/27 08:08:14;;;;;;;4.00;3.10;;;15.90;99.90;;;;;;4826814;29;20846;-86
2023/07/27 08:10:40;;;;;;;3.03;2.57;;;15.90;99.90;;;;;;4795934;29;20228;-86
2023/07/27 08:13:05;;;;;;;4.53;2.80;;;15.90;99.90;;;;;;4810197;29;20193;-86
2023/07/27 08:15:31;;;;;;;3.20;2.57;;;15.90;99.90;;;;;;4826774;29;20186;-86
2023/07/27 08:17:57;;;;;;;3.17;2.50;;;16.00;99.90;;;;;;4826804;29;20431;-86
2023/07/27 08:20:22;;;;;;;3.00;2.70;;;16.00;99.90;;;;;;4827081;29;20258;-86
2023/07/27 08:22:48;;;;;;;3.93;3.30;;;16.10;99.90;;;;;;4810470;29;20200;-86
2023/07/27 08:25:14;;;;;;;3.20;2.90;;;16.10;99.90;;;;;;4812279;29;20242;-87
2023/07/27 08:27:41;;;;;;;4.60;3.03;;;16.10;99.90;;;;;;4777270;29;20198;-87
2023/07/27 08:30:07;;;;;;;3.10;2.80;;;16.20;99.90;;;;;;4808298;29;20937;-86
2023/07/27 08:32:33;;;;;;;3.80;2.53;;;16.10;99.90;;;;;;4808209;29;20552;-87
2023/07/27 08:34:59;;;;;;;3.03;2.67;;;16.20;99.90;;;;;;4792180;29;20478;-86
2023/07/27 08:37:25;;;;;;;2.73;2.53;;;16.20;99.90;;;;;;4808430;29;20398;-86
2023/07/27 08:39:50;;;;;;;3.90;2.87;;;16.30;99.90;;;;;;4808107;29;20190;-87
2023/07/27 08:42:16;;;;;;;3.13;2.83;;;16.30;99.90;;;;;;4792116;29;20194;-86
2023/07/27 08:44:43;;;;;;;3.93;3.37;;;16.30;99.90;;;;;;4808190;29;20210;-86
2023/07/27 08:47:10;;;;;;;3.33;2.83;;;16.20;99.90;;;;;;4792004;29;20182;-86
2023/07/27 08:49:36;;;;;;;2.80;2.57;;;16.30;99.90;;;;;;4808172;29;20398;-86
2023/07/27 08:52:02;;;;;;;2.80;2.60;;;16.30;99.90;;;;;;4791733;29;20398;-86
2023/07/27 08:54:29;;;;;;;3.70;2.93;;;16.40;99.90;;;;;;4808281;29;20500;-86
2023/07/27 08:56:54;;;;;;;2.77;2.57;;;16.50;99.90;;;;;;4792361;29;20186;-87
2023/07/27 08:59:20;;;;;;;3.10;2.70;;;16.50;99.90;;;;;;4791805;29;20493;-85
2023/07/27 09:01:46;;;;;;;2.97;2.77;;;16.50;99.90;;;;;;4791859;29;20600;-86
2023/07/27 09:04:12;;;;;;;5.60;2.70;;;16.60;99.90;;;;;;4807875;29;20513;-86
2023/07/27 09:06:38;;;;;;;5.47;3.30;;;16.60;99.90;;;;;;4792185;29;20198;-85
2023/07/27 09:09:25;;;;;;;2.40;2.20;;;16.70;99.90;;;;;;4807777;29;20189;-86
2023/07/27 09:11:52;;;;;;;4.00;2.60;;;16.70;99.90;;;;;;4791695;29;20398;-85
2023/07/27 09:14:19;;;;;;;2.57;2.13;;;16.60;99.90;;;;;;4807717;29;20454;-85
2023/07/27 09:16:46;;;;;;;3.40;3.10;;;16.70;99.90;;;;;;4807977;29;20408;-85
2023/07/27 09:19:12;;;;;;;3.50;2.10;;;16.80;99.90;;;;;;4792415;29;20430;-85
2023/07/27 09:21:44;;;;;;;2.63;2.03;;;16.70;99.90;;;;;;4808068;29;20416;-85
2023/07/27 09:24:11;;;;;;;2.33;2.13;;;16.80;99.90;;;;;;4807855;29;20499;-86
2023/07/27 09:26:45;;;;;;;2.20;2.00;;;16.80;99.90;;;;;;4807480;29;20399;-86
2023/07/27 09:29:11;;;;;;;2.40;2.20;;;16.80;99.90;;;;;;4807835;29;20511;-85
2023/07/27 09:31:44;;;;;;;3.23;2.00;;;16.90;99.90;;;;;;4807798;29;20395;-85
2023/07/27 09:34:09;;;;;;;3.37;2.50;;;16.90;99.90;;;;;;4791662;29;20464;-85
2023/07/27 09:36:35;;;;;;;2.70;2.40;;;17.00;99.90;;;;;;4791280;29;20410;-85
2023/07/27 09:39:03;;;;;;;2.50;2.30;;;17.00;99.90;;;;;;4776249;29;20194;-85
2023/07/27 09:41:31;;;;;;;5.30;2.27;;;17.00;99.90;;;;;;4791792;29;20952;-86
2023/07/27 09:43:57;;;;;;;2.70;2.50;;;17.10;99.90;;;;;;4791135;29;20475;-85
2023/07/27 09:46:24;;;;;;;3.10;2.80;;;17.10;99.90;;;;;;4807686;29;20394;-85
2023/07/27 09:48:51;;;;;;;2.97;2.60;;;17.10;99.90;;;;;;4791455;29;20485;-85
2023/07/27 09:51:17;;;;;;;3.60;3.30;;;17.20;99.90;;;;;;4807026;29;20410;-86
2023/07/27 09:53:44;;;;;;;3.07;2.80;;;17.20;99.90;;;;;;4790777;29;20434;-86
2023/07/27 09:56:14;;;;;;;4.27;2.70;;;17.30;99.90;;;;;;4807099;29;20542;-86
2023/07/27 09:58:41;;;;;;;6.00;3.00;;;17.30;99.90;;;;;;4791188;29;20932;-85
2023/07/27 10:01:07;;;;;;;3.67;3.37;;;17.30;99.90;;;;;;4807244;29;20395;-85
2023/07/27 10:03:33;;;;;;;2.73;2.47;;;17.40;99.90;;;;;;4791229;29;20479;-85
2023/07/27 10:06:00;;;;;;;4.33;2.87;;;17.40;99.90;;;;;;4791000;29;20452;-86
2023/07/27 10:08:26;;;;;;;3.20;2.50;;;17.40;99.90;;;;;;4807412;29;20416;-84
2023/07/27 10:10:58;;;;;;;3.30;2.30;;;17.40;99.90;;;;;;4807921;29;20383;-84
2023/07/27 10:13:24;;;;;;;2.50;2.30;;;17.50;99.90;;;;;;4807806;29;20480;-85
2023/07/27 10:15:52;;;;;;;3.03;2.30;;;17.60;99.90;;;;;;4807502;29;20394;-85
2023/07/27 10:18:23;;;;;;;2.57;1.77;;;17.60;99.90;;;;;;4806798;29;20251;-85
2023/07/27 10:20:49;;;;;;;2.20;2.00;;;17.60;99.90;;;;;;4807819;29;20421;-85
2023/07/27 10:23:25;;;;;;;2.17;1.70;;;17.70;99.90;;;;;;4775888;29;20443;-86
2023/07/27 10:25:56;;;;;;;2.77;2.10;;;17.80;99.90;;;;;;4825454;29;20206;-86
2023/07/27 10:28:40;;;;;;;2.20;1.80;;;17.90;99.90;;;;;;4825271;29;20514;-85
2023/07/27 10:31:26;;;;;;;2.20;2.00;;;17.90;99.90;;;;;;4824872;29;20422;-87
2023/07/27 10:33:59;;;;;;;2.80;2.07;;;17.90;99.90;;;;;;4825182;29;20409;-86
2023/07/27 10:36:47;;;;;;;1.60;1.50;;;18.00;99.90;;;;;;4825087;29;20408;-87
2023/07/27 10:39:16;;;;;;;1.97;1.87;;;18.10;99.90;;;;;;4824700;29;20426;-86
2023/07/27 10:42:00;;;;;;;1.50;1.33;;;18.10;99.90;;;;;;4824909;29;20424;-86
2023/07/27 10:44:40;;;;;;;1.63;1.53;;;18.10;99.90;;;;;;4825044;29;20449;-87
2023/07/27 10:47:08;;;;;;;1.73;1.63;;;18.20;99.90;;;;;;4824999;29;20404;-87
2023/07/27 10:49:42;;;;;;;1.50;1.40;;;18.30;99.90;;;;;;4826802;29;20429;-87
2023/07/27 10:52:09;;;;;;;1.90;1.40;;;18.30;99.90;;;;;;4833579;29;20482;-86
2023/07/27 10:54:42;;;;;;;1.23;1.00;;;18.40;99.90;;;;;;4827075;29;20434;-87
2023/07/27 10:57:09;;;;;;;1.87;1.50;;;18.50;99.90;;;;;;4826794;29;20381;-86
2023/07/27 10:59:41;;;;;;;2.73;1.60;;;18.50;99.90;;;;;;4824784;29;20497;-86
2023/07/27 11:02:20;;;;;;;2.30;1.53;;;18.50;99.90;;;;;;4824313;29;20394;-86
2023/07/27 11:04:57;;;;;;;1.63;1.37;;;18.50;99.90;;;;;;4824772;29;21026;-89
2023/07/27 11:07:32;;;;;;;1.27;1.17;;;18.50;99.90;;;;;;4824636;29;20898;-87
2023/07/27 11:09:59;;;;;;;3.27;2.07;;;18.50;99.90;;;;;;4824768;29;20393;-88
2023/07/27 11:12:25;;;;;;;1.70;1.60;;;18.50;99.90;;;;;;4808653;29;20484;-90
2023/07/27 11:14:52;;;;;;;1.70;1.60;;;18.50;99.90;;;;;;4824443;29;20868;-87
2023/07/27 11:17:19;;;;;;;3.37;1.70;;;18.70;99.90;;;;;;4824161;29;20241;-89
2023/07/27 11:19:48;;;;;;;1.50;1.40;;;18.80;99.90;;;;;;4825014;29;20397;-90
2023/07/27 11:22:15;;;;;;;1.40;1.30;;;19.00;99.90;;;;;;4824460;29;20484;-88
2023/07/27 11:24:41;;;;;;;1.30;1.20;;;19.20;99.90;;;;;;4815016;29;20853;-88
2023/07/27 11:27:07;;;;;;;1.70;1.33;;;19.20;99.90;;;;;;4806213;29;20486;-88
2023/07/27 11:29:33;;;;;;;2.43;1.30;;;19.20;99.90;;;;;;4806892;29;20560;-88
2023/07/27 11:32:00;;;;;;;2.97;1.33;;;19.30;99.90;;;;;;4805876;29;20251;-87
2023/07/27 11:34:28;;;;;;;1.40;1.23;;;19.20;99.90;;;;;;4789992;29;20394;-87
2023/07/27 11:36:59;;;;;;;1.30;1.03;;;19.20;99.90;;;;;;4789917;29;21045;-88
2023/07/27 11:39:25;;;;;;;1.67;1.10;;;19.30;99.90;;;;;;4805734;29;20394;-87
2023/07/27 11:41:52;;;;;;;1.23;1.03;;;19.30;99.90;;;;;;4806558;29;20394;-87
2023/07/27 11:44:20;;;;;;;1.50;1.40;;;19.20;99.90;;;;;;4806426;29;20536;-88
2023/07/27 11:46:49;;;;;;;2.53;1.20;;;19.10;99.90;;;;;;4806538;29;20511;-87
2023/07/27 11:49:20;;;;;;;1.30;1.20;;;19.20;99.90;;;;;;4806055;29;20459;-87
2023/07/27 11:51:46;;;;;;;1.30;1.20;;;19.20;99.90;;;;;;4806412;29;20414;-88
2023/07/27 11:54:22;;;;;;;1.73;1.10;;;19.20;99.90;;;;;;4806127;29;20538;-87
2023/07/27 11:56:55;;;;;;;2.10;1.63;;;19.20;99.90;;;;;;4806408;29;20419;-87
2023/07/27 11:59:22;;;;;;;3.97;1.23;;;19.30;99.90;;;;;;4806179;29;20448;-87
2023/07/27 12:01:51;;;;;;;3.00;1.17;;;19.30;99.90;;;;;;4809132;29;20553;-87
2023/07/27 12:04:20;;;;;;;1.43;1.23;;;19.30;99.90;;;;;;4809381;29;20450;-87
2023/07/27 12:06:46;;;;;;;2.93;1.30;;;19.30;99.90;;;;;;4809181;29;20779;-87
2023/07/27 12:09:12;;;;;;;1.83;1.10;;;19.20;99.90;;;;;;4809721;29;20798;-84
2023/07/27 12:11:38;;;;;;;2.13;1.20;;;19.10;99.90;;;;;;4810248;29;20402;-85
2023/07/27 12:14:08;;;;;;;2.27;1.27;;;19.00;99.90;;;;;;4809725;29;20198;-86
2023/07/27 12:16:43;;;;;;;3.00;1.27;;;18.90;99.90;;;;;;4809770;29;20423;-86
2023/07/27 12:19:09;;;;;;;1.40;0.90;;;18.80;99.90;;;;;;4809549;29;20454;-85
2023/07/27 12:21:35;;;;;;;2.13;1.30;;;18.70;99.90;;;;;;4809561;29;20461;-86
2023/07/27 12:24:06;;;;;;;2.23;1.00;;;18.60;99.90;;;;;;4809001;29;20707;-86
2023/07/27 12:26:32;;;;;;;1.20;1.10;;;18.60;99.90;;;;;;4816301;29;20394;-84
2023/07/27 12:28:57;;;;;;;1.40;0.90;;;18.70;99.90;;;;;;4785840;29;20435;-86
2023/07/27 12:31:23;;;;;;;1.40;1.30;;;18.60;99.90;;;;;;4808936;29;20685;-86
2023/07/27 12:33:49;;;;;;;2.83;1.10;;;18.60;99.90;;;;;;4809489;29;20186;-85
2023/07/27 12:36:14;;;;;;;1.50;1.27;;;18.80;99.90;;;;;;4809281;29;20190;-86
2023/07/27 12:38:40;;;;;;;1.50;1.30;;;18.70;99.90;;;;;;4793992;29;20186;-84
2023/07/27 12:41:05;;;;;;;1.00;0.90;;;18.60;99.90;;;;;;4809575;29;20217;-85
2023/07/27 12:43:31;;;;;;;2.17;0.87;;;18.60;99.90;;;;;;4809520;29;20218;-85
2023/07/27 12:45:57;;;;;;;0.80;0.70;;;18.60;99.90;;;;;;4809396;29;20194;-85
2023/07/27 12:48:22;;;;;;;1.07;0.97;;;18.60;99.90;;;;;;4809634;29;20636;-85
2023/07/27 12:50:48;;;;;;;1.53;1.10;;;18.80;99.90;;;;;;4793395;29;20191;-85